Terminal Aerodrome Forecast
Issued by NWS Twin Cities, MN

Home | Current Version | Previous Version | Graphics & Text | Print | Product List | Glossary Off
Versions: 1 2 3 4 5 6 7 8 9 10 11 12 13 14 15 16 17 18 19 20 21 22 23 24 25 26 27 28

000
FTUS43 KMPX 230200 AAA
TAFMSP
TAF AMD
KMSP 230255Z 2303/2406 07012KT 4SM -RASN BR OVC013
     FM230900 05013KT 4SM BR OVC007
     FM231100 03014KT 2SM -SN BR OVC005
     FM231300 02013KT 1SM -SN BR VV003
     FM232000 35012KT 3SM -SN OVC006=

USA.gov is the U.S. government's official web portal to all federal, state and local government web resources and services.